sensor_id;sensor_type;location;lat;lon;timestamp;P1;durP1;ratioP1;P2;durP2;ratioP2
51515;SDS011;37603;55.614;37.326;2023-07-29T00:04:30;7.7;;;3.7;;
51515;SDS011;37603;55.614;37.326;2023-07-29T00:10:30;5.4;;;4.0;;
51515;SDS011;37603;55.614;37.326;2023-07-29T00:16:29;5.6;;;3.6;;
51515;SDS011;37603;55.614;37.326;2023-07-29T00:22:29;6.7;;;4.2;;
51515;SDS011;37603;55.614;37.326;2023-07-29T00:28:28;6.4;;;3.9;;
51515;SDS011;37603;55.614;37.326;2023-07-29T00:34:28;5.1;;;4.1;;
51515;SDS011;37603;55.614;37.326;2023-07-29T00:40:28;5.4;;;4.1;;
51515;SDS011;37603;55.614;37.326;2023-07-29T00:46:27;9.3;;;4.4;;
51515;SDS011;37603;55.614;37.326;2023-07-29T00:52:26;4.6;;;3.8;;
51515;SDS011;37603;55.614;37.326;2023-07-29T00:58:25;4.4;;;3.9;;
51515;SDS011;37603;55.614;37.326;2023-07-29T01:04:25;5.1;;;4.1;;
51515;SDS011;37603;55.614;37.326;2023-07-29T01:10:30;4.2;;;3.8;;
51515;SDS011;37603;55.614;37.326;2023-07-29T01:16:25;4.9;;;3.8;;
51515;SDS011;37603;55.614;37.326;2023-07-29T01:22:23;5.2;;;4.1;;
51515;SDS011;37603;55.614;37.326;2023-07-29T01:28:22;4.7;;;3.6;;
51515;SDS011;37603;55.614;37.326;2023-07-29T01:34:23;6.5;;;4.1;;
51515;SDS011;37603;55.614;37.326;2023-07-29T01:40:21;5.1;;;4.1;;
51515;SDS011;37603;55.614;37.326;2023-07-29T01:46:21;5.8;;;4.4;;
51515;SDS011;37603;55.614;37.326;2023-07-29T01:52:20;7.2;;;4.2;;
51515;SDS011;37603;55.614;37.326;2023-07-29T01:58:19;4.4;;;4.0;;
51515;SDS011;37603;55.614;37.326;2023-07-29T02:04:19;5.3;;;4.5;;
51515;SDS011;37603;55.614;37.326;2023-07-29T02:10:18;5.6;;;4.7;;
51515;SDS011;37603;55.614;37.326;2023-07-29T02:16:18;6.1;;;4.7;;
51515;SDS011;37603;55.614;37.326;2023-07-29T02:22:17;7.0;;;4.9;;
51515;SDS011;37603;55.614;37.326;2023-07-29T02:28:17;6.8;;;4.7;;
51515;SDS011;37603;55.614;37.326;2023-07-29T02:34:16;8.3;;;5.4;;
51515;SDS011;37603;55.614;37.326;2023-07-29T02:40:15;7.9;;;5.2;;
51515;SDS011;37603;55.614;37.326;2023-07-29T02:46:15;6.5;;;5.1;;
51515;SDS011;37603;55.614;37.326;2023-07-29T02:52:14;6.8;;;5.2;;
51515;SDS011;37603;55.614;37.326;2023-07-29T02:58:14;6.1;;;5.0;;
51515;SDS011;37603;55.614;37.326;2023-07-29T03:04:13;7.3;;;5.4;;
51515;SDS011;37603;55.614;37.326;2023-07-29T03:10:12;6.5;;;5.8;;
51515;SDS011;37603;55.614;37.326;2023-07-29T03:16:12;7.6;;;5.8;;
51515;SDS011;37603;55.614;37.326;2023-07-29T03:22:11;7.0;;;5.7;;
51515;SDS011;37603;55.614;37.326;2023-07-29T03:28:11;7.4;;;5.6;;
51515;SDS011;37603;55.614;37.326;2023-07-29T03:34:10;7.2;;;5.5;;
51515;SDS011;37603;55.614;37.326;2023-07-29T03:40:10;7.6;;;5.2;;
51515;SDS011;37603;55.614;37.326;2023-07-29T03:46:09;5.6;;;4.6;;
51515;SDS011;37603;55.614;37.326;2023-07-29T03:52:08;6.2;;;4.6;;
51515;SDS011;37603;55.614;37.326;2023-07-29T03:58:08;6.3;;;5.0;;
51515;SDS011;37603;55.614;37.326;2023-07-29T04:04:07;5.4;;;4.9;;
51515;SDS011;37603;55.614;37.326;2023-07-29T04:10:07;6.4;;;4.9;;
51515;SDS011;37603;55.614;37.326;2023-07-29T04:16:06;5.4;;;4.4;;
51515;SDS011;37603;55.614;37.326;2023-07-29T04:22:05;6.7;;;4.8;;
51515;SDS011;37603;55.614;37.326;2023-07-29T04:28:05;5.8;;;4.5;;
51515;SDS011;37603;55.614;37.326;2023-07-29T04:40:04;5.2;;;4.7;;
51515;SDS011;37603;55.614;37.326;2023-07-29T04:46:05;6.3;;;4.7;;
51515;SDS011;37603;55.614;37.326;2023-07-29T04:52:02;5.4;;;4.7;;
51515;SDS011;37603;55.614;37.326;2023-07-29T04:58:02;5.9;;;4.2;;
51515;SDS011;37603;55.614;37.326;2023-07-29T05:04:01;6.4;;;4.7;;
51515;SDS011;37603;55.614;37.326;2023-07-29T05:10:01;5.3;;;4.4;;
51515;SDS011;37603;55.614;37.326;2023-07-29T05:16:00;4.8;;;4.0;;
51515;SDS011;37603;55.614;37.326;2023-07-29T05:21:59;6.3;;;4.4;;
51515;SDS011;37603;55.614;37.326;2023-07-29T05:27:59;7.3;;;4.2;;
51515;SDS011;37603;55.614;37.326;2023-07-29T05:33:58;6.6;;;4.8;;
51515;SDS011;37603;55.614;37.326;2023-07-29T05:39:58;6.0;;;4.2;;
51515;SDS011;37603;55.614;37.326;2023-07-29T05:45:57;5.8;;;4.4;;
51515;SDS011;37603;55.614;37.326;2023-07-29T05:51:57;6.2;;;4.1;;
51515;SDS011;37603;55.614;37.326;2023-07-29T05:57:56;5.0;;;4.5;;
51515;SDS011;37603;55.614;37.326;2023-07-29T06:03:55;5.6;;;4.4;;
51515;SDS011;37603;55.614;37.326;2023-07-29T06:09:55;7.1;;;5.0;;
51515;SDS011;37603;55.614;37.326;2023-07-29T06:15:54;5.8;;;4.5;;
51515;SDS011;37603;55.614;37.326;2023-07-29T06:21:55;5.4;;;4.7;;
51515;SDS011;37603;55.614;37.326;2023-07-29T06:27:53;5.2;;;4.5;;
51515;SDS011;37603;55.614;37.326;2023-07-29T06:33:52;6.1;;;4.6;;
51515;SDS011;37603;55.614;37.326;2023-07-29T06:39:52;6.4;;;5.3;;
51515;SDS011;37603;55.614;37.326;2023-07-29T06:45:51;5.7;;;5.0;;
51515;SDS011;37603;55.614;37.326;2023-07-29T06:51:51;6.7;;;4.7;;
51515;SDS011;37603;55.614;37.326;2023-07-29T06:57:50;6.6;;;4.6;;
51515;SDS011;37603;55.614;37.326;2023-07-29T07:03:50;6.0;;;5.3;;
51515;SDS011;37603;55.614;37.326;2023-07-29T07:09:49;7.0;;;4.5;;
51515;SDS011;37603;55.614;37.326;2023-07-29T07:15:49;6.4;;;5.1;;
51515;SDS011;37603;55.614;37.326;2023-07-29T07:21:48;7.1;;;4.8;;
51515;SDS011;37603;55.614;37.326;2023-07-29T07:27:48;7.0;;;4.7;;
51515;SDS011;37603;55.614;37.326;2023-07-29T07:33:47;6.0;;;4.7;;
51515;SDS011;37603;55.614;37.326;2023-07-29T07:45:46;7.0;;;4.7;;
51515;SDS011;37603;55.614;37.326;2023-07-29T07:51:45;4.6;;;4.2;;
51515;SDS011;37603;55.614;37.326;2023-07-29T07:57:45;4.9;;;4.2;;
51515;SDS011;37603;55.614;37.326;2023-07-29T08:03:44;5.8;;;4.2;;
51515;SDS011;37603;55.614;37.326;2023-07-29T08:09:44;5.1;;;4.2;;
51515;SDS011;37603;55.614;37.326;2023-07-29T08:15:45;5.7;;;4.0;;
51515;SDS011;37603;55.614;37.326;2023-07-29T08:21:43;5.0;;;3.7;;
51515;SDS011;37603;55.614;37.326;2023-07-29T08:27:42;4.0;;;3.4;;
51515;SDS011;37603;55.614;37.326;2023-07-29T08:33:42;4.2;;;3.1;;
51515;SDS011;37603;55.614;37.326;2023-07-29T08:39:41;6.2;;;3.6;;
51515;SDS011;37603;55.614;37.326;2023-07-29T08:45:41;4.0;;;3.7;;
51515;SDS011;37603;55.614;37.326;2023-07-29T08:57:40;3.9;;;3.2;;
51515;SDS011;37603;55.614;37.326;2023-07-29T09:03:40;4.1;;;3.0;;
51515;SDS011;37603;55.614;37.326;2023-07-29T09:09:39;4.7;;;3.5;;
51515;SDS011;37603;55.614;37.326;2023-07-29T09:15:38;3.7;;;3.1;;
51515;SDS011;37603;55.614;37.326;2023-07-29T09:21:38;4.7;;;3.4;;
51515;SDS011;37603;55.614;37.326;2023-07-29T09:27:37;4.2;;;3.5;;
51515;SDS011;37603;55.614;37.326;2023-07-29T09:33:37;5.7;;;3.7;;
51515;SDS011;37603;55.614;37.326;2023-07-29T09:39:36;4.2;;;3.4;;
51515;SDS011;37603;55.614;37.326;2023-07-29T09:45:36;4.0;;;3.5;;
51515;SDS011;37603;55.614;37.326;2023-07-29T09:51:37;5.5;;;3.7;;
51515;SDS011;37603;55.614;37.326;2023-07-29T09:57:35;4.1;;;3.6;;
51515;SDS011;37603;55.614;37.326;2023-07-29T10:03:35;4.7;;;3.7;;
51515;SDS011;37603;55.614;37.326;2023-07-29T10:09:34;4.3;;;3.5;;
51515;SDS011;37603;55.614;37.326;2023-07-29T10:15:34;5.4;;;3.9;;
51515;SDS011;37603;55.614;37.326;2023-07-29T10:21:33;4.9;;;2.9;;
51515;SDS011;37603;55.614;37.326;2023-07-29T10:27:35;3.3;;;3.0;;
51515;SDS011;37603;55.614;37.326;2023-07-29T10:33:32;3.9;;;3.2;;
51515;SDS011;37603;55.614;37.326;2023-07-29T10:39:37;7.9;;;3.4;;
51515;SDS011;37603;55.614;37.326;2023-07-29T10:45:36;4.6;;;3.4;;
51515;SDS011;37603;55.614;37.326;2023-07-29T10:51:34;4.7;;;3.3;;
51515;SDS011;37603;55.614;37.326;2023-07-29T10:57:31;5.8;;;4.1;;
51515;SDS011;37603;55.614;37.326;2023-07-29T11:03:30;5.1;;;3.7;;
51515;SDS011;37603;55.614;37.326;2023-07-29T11:09:39;5.2;;;3.5;;
51515;SDS011;37603;55.614;37.326;2023-07-29T11:15:29;5.9;;;3.5;;
51515;SDS011;37603;55.614;37.326;2023-07-29T11:21:29;4.9;;;3.8;;
51515;SDS011;37603;55.614;37.326;2023-07-29T11:27:29;5.3;;;3.7;;
51515;SDS011;37603;55.614;37.326;2023-07-29T11:33:28;4.0;;;3.6;;
51515;SDS011;37603;55.614;37.326;2023-07-29T11:39:28;5.3;;;3.6;;
51515;SDS011;37603;55.614;37.326;2023-07-29T11:45:27;4.1;;;3.4;;
51515;SDS011;37603;55.614;37.326;2023-07-29T11:51:27;4.6;;;3.0;;
51515;SDS011;37603;55.614;37.326;2023-07-29T11:57:27;4.7;;;3.1;;
51515;SDS011;37603;55.614;37.326;2023-07-29T12:03:26;4.6;;;3.0;;
51515;SDS011;37603;55.614;37.326;2023-07-29T12:09:26;5.2;;;2.7;;
51515;SDS011;37603;55.614;37.326;2023-07-29T12:15:26;3.9;;;2.5;;
51515;SDS011;37603;55.614;37.326;2023-07-29T12:21:25;3.4;;;2.6;;
51515;SDS011;37603;55.614;37.326;2023-07-29T12:27:25;3.6;;;2.3;;
51515;SDS011;37603;55.614;37.326;2023-07-29T12:33:34;4.3;;;2.6;;
51515;SDS011;37603;55.614;37.326;2023-07-29T12:39:25;4.0;;;2.8;;
51515;SDS011;37603;55.614;37.326;2023-07-29T12:45:23;4.6;;;2.8;;
51515;SDS011;37603;55.614;37.326;2023-07-29T12:51:23;6.1;;;2.9;;
51515;SDS011;37603;55.614;37.326;2023-07-29T12:57:23;6.0;;;2.6;;
51515;SDS011;37603;55.614;37.326;2023-07-29T13:03:24;2.8;;;2.5;;
51515;SDS011;37603;55.614;37.326;2023-07-29T13:09:22;4.0;;;2.8;;
51515;SDS011;37603;55.614;37.326;2023-07-29T13:15:21;4.1;;;3.2;;
51515;SDS011;37603;55.614;37.326;2023-07-29T13:21:21;4.9;;;3.0;;
51515;SDS011;37603;55.614;37.326;2023-07-29T13:27:21;4.3;;;2.9;;
51515;SDS011;37603;55.614;37.326;2023-07-29T13:33:20;5.2;;;3.1;;
51515;SDS011;37603;55.614;37.326;2023-07-29T13:39:20;7.2;;;4.8;;
51515;SDS011;37603;55.614;37.326;2023-07-29T13:45:20;4.6;;;3.1;;
51515;SDS011;37603;55.614;37.326;2023-07-29T13:51:19;6.4;;;3.8;;
51515;SDS011;37603;55.614;37.326;2023-07-29T13:57:19;3.7;;;2.6;;
51515;SDS011;37603;55.614;37.326;2023-07-29T14:03:18;3.9;;;3.1;;
51515;SDS011;37603;55.614;37.326;2023-07-29T14:09:18;3.6;;;2.5;;
51515;SDS011;37603;55.614;37.326;2023-07-29T14:15:18;3.4;;;3.1;;
51515;SDS011;37603;55.614;37.326;2023-07-29T14:21:17;5.3;;;3.3;;
51515;SDS011;37603;55.614;37.326;2023-07-29T14:27:17;4.3;;;2.7;;
51515;SDS011;37603;55.614;37.326;2023-07-29T14:33:16;4.8;;;3.3;;
51515;SDS011;37603;55.614;37.326;2023-07-29T14:39:16;4.0;;;2.7;;
51515;SDS011;37603;55.614;37.326;2023-07-29T14:45:16;5.2;;;2.8;;
51515;SDS011;37603;55.614;37.326;2023-07-29T14:51:15;4.9;;;3.0;;
51515;SDS011;37603;55.614;37.326;2023-07-29T14:57:16;6.6;;;2.8;;
51515;SDS011;37603;55.614;37.326;2023-07-29T15:03:14;6.9;;;3.9;;
51515;SDS011;37603;55.614;37.326;2023-07-29T15:09:14;7.0;;;4.0;;
51515;SDS011;37603;55.614;37.326;2023-07-29T15:15:14;6.7;;;3.6;;
51515;SDS011;37603;55.614;37.326;2023-07-29T15:21:13;4.9;;;3.0;;
51515;SDS011;37603;55.614;37.326;2023-07-29T15:27:13;5.0;;;3.2;;
51515;SDS011;37603;55.614;37.326;2023-07-29T15:33:13;6.3;;;3.2;;
51515;SDS011;37603;55.614;37.326;2023-07-29T15:39:12;4.7;;;3.3;;
51515;SDS011;37603;55.614;37.326;2023-07-29T15:45:12;5.7;;;3.0;;
51515;SDS011;37603;55.614;37.326;2023-07-29T15:51:12;5.2;;;3.9;;
51515;SDS011;37603;55.614;37.326;2023-07-29T15:57:11;7.7;;;3.8;;
51515;SDS011;37603;55.614;37.326;2023-07-29T16:03:11;4.7;;;3.5;;
51515;SDS011;37603;55.614;37.326;2023-07-29T16:09:11;6.5;;;3.4;;
51515;SDS011;37603;55.614;37.326;2023-07-29T16:21:10;4.5;;;3.0;;
51515;SDS011;37603;55.614;37.326;2023-07-29T16:27:10;10.3;;;6.7;;
51515;SDS011;37603;55.614;37.326;2023-07-29T16:33:09;5.8;;;3.2;;
51515;SDS011;37603;55.614;37.326;2023-07-29T16:39:09;10.8;;;5.8;;
51515;SDS011;37603;55.614;37.326;2023-07-29T16:45:10;10.9;;;5.7;;
51515;SDS011;37603;55.614;37.326;2023-07-29T16:51:08;5.4;;;4.3;;
51515;SDS011;37603;55.614;37.326;2023-07-29T16:57:08;7.1;;;3.8;;
51515;SDS011;37603;55.614;37.326;2023-07-29T17:03:08;5.7;;;4.0;;
51515;SDS011;37603;55.614;37.326;2023-07-29T17:09:07;6.4;;;4.2;;
51515;SDS011;37603;55.614;37.326;2023-07-29T17:15:07;6.8;;;4.3;;
51515;SDS011;37603;55.614;37.326;2023-07-29T17:21:07;7.0;;;4.6;;
51515;SDS011;37603;55.614;37.326;2023-07-29T17:27:06;7.9;;;5.1;;
51515;SDS011;37603;55.614;37.326;2023-07-29T17:33:06;9.7;;;5.5;;
51515;SDS011;37603;55.614;37.326;2023-07-29T17:39:06;11.1;;;5.9;;
51515;SDS011;37603;55.614;37.326;2023-07-29T17:45:05;8.6;;;6.1;;
51515;SDS011;37603;55.614;37.326;2023-07-29T17:51:04;7.9;;;5.3;;
51515;SDS011;37603;55.614;37.326;2023-07-29T17:57:04;10.4;;;6.3;;
51515;SDS011;37603;55.614;37.326;2023-07-29T18:03:03;7.1;;;6.4;;
51515;SDS011;37603;55.614;37.326;2023-07-29T18:09:03;10.4;;;6.8;;
51515;SDS011;37603;55.614;37.326;2023-07-29T18:15:02;14.7;;;9.2;;
51515;SDS011;37603;55.614;37.326;2023-07-29T18:21:02;11.1;;;8.0;;
51515;SDS011;37603;55.614;37.326;2023-07-29T18:27:01;12.9;;;9.3;;
51515;SDS011;37603;55.614;37.326;2023-07-29T18:33:01;11.2;;;8.1;;
51515;SDS011;37603;55.614;37.326;2023-07-29T18:39:00;10.2;;;7.2;;
51515;SDS011;37603;55.614;37.326;2023-07-29T18:45:00;16.6;;;13.0;;
51515;SDS011;37603;55.614;37.326;2023-07-29T18:50:59;22.3;;;17.9;;
51515;SDS011;37603;55.614;37.326;2023-07-29T18:56:59;23.3;;;18.7;;
51515;SDS011;37603;55.614;37.326;2023-07-29T19:03:01;24.6;;;20.2;;
51515;SDS011;37603;55.614;37.326;2023-07-29T19:08:58;18.7;;;15.5;;
51515;SDS011;37603;55.614;37.326;2023-07-29T19:14:57;20.7;;;14.8;;
51515;SDS011;37603;55.614;37.326;2023-07-29T19:20:57;18.1;;;12.4;;
51515;SDS011;37603;55.614;37.326;2023-07-29T19:26:56;17.3;;;12.6;;
51515;SDS011;37603;55.614;37.326;2023-07-29T19:32:56;17.5;;;12.6;;
51515;SDS011;37603;55.614;37.326;2023-07-29T19:38:55;16.7;;;13.0;;
51515;SDS011;37603;55.614;37.326;2023-07-29T19:44:55;18.9;;;14.1;;
51515;SDS011;37603;55.614;37.326;2023-07-29T19:50:54;25.6;;;19.3;;
51515;SDS011;37603;55.614;37.326;2023-07-29T19:56:54;22.8;;;16.0;;
51515;SDS011;37603;55.614;37.326;2023-07-29T20:02:53;23.0;;;16.2;;
51515;SDS011;37603;55.614;37.326;2023-07-29T20:08:52;18.4;;;13.2;;
51515;SDS011;37603;55.614;37.326;2023-07-29T20:14:52;22.9;;;17.8;;
51515;SDS011;37603;55.614;37.326;2023-07-29T20:20:52;17.5;;;14.6;;
51515;SDS011;37603;55.614;37.326;2023-07-29T20:26:53;19.4;;;15.0;;
51515;SDS011;37603;55.614;37.326;2023-07-29T20:32:50;32.0;;;26.4;;
51515;SDS011;37603;55.614;37.326;2023-07-29T20:38:49;30.9;;;25.7;;
51515;SDS011;37603;55.614;37.326;2023-07-29T20:44:49;40.0;;;33.5;;
51515;SDS011;37603;55.614;37.326;2023-07-29T20:50:48;46.0;;;35.6;;
51515;SDS011;37603;55.614;37.326;2023-07-29T20:56:48;33.8;;;27.6;;
51515;SDS011;37603;55.614;37.326;2023-07-29T21:02:47;31.1;;;23.1;;
51515;SDS011;37603;55.614;37.326;2023-07-29T21:08:46;26.2;;;18.0;;
51515;SDS011;37603;55.614;37.326;2023-07-29T21:14:46;33.8;;;25.7;;
51515;SDS011;37603;55.614;37.326;2023-07-29T21:20:45;28.0;;;19.7;;
51515;SDS011;37603;55.614;37.326;2023-07-29T21:26:45;37.7;;;29.2;;
51515;SDS011;37603;55.614;37.326;2023-07-29T21:38:44;25.8;;;20.1;;
51515;SDS011;37603;55.614;37.326;2023-07-29T21:44:43;40.2;;;26.7;;
51515;SDS011;37603;55.614;37.326;2023-07-29T21:50:44;30.0;;;20.7;;
51515;SDS011;37603;55.614;37.326;2023-07-29T21:56:42;23.1;;;18.8;;
51515;SDS011;37603;55.614;37.326;2023-07-29T22:02:41;24.1;;;20.3;;
51515;SDS011;37603;55.614;37.326;2023-07-29T22:08:40;36.6;;;26.5;;
51515;SDS011;37603;55.614;37.326;2023-07-29T22:14:40;35.7;;;26.6;;
51515;SDS011;37603;55.614;37.326;2023-07-29T22:20:39;34.2;;;23.6;;
51515;SDS011;37603;55.614;37.326;2023-07-29T22:26:39;29.9;;;23.0;;
51515;SDS011;37603;55.614;37.326;2023-07-29T22:32:38;32.2;;;23.4;;
51515;SDS011;37603;55.614;37.326;2023-07-29T22:38:37;30.7;;;20.3;;
51515;SDS011;37603;55.614;37.326;2023-07-29T22:44:37;27.0;;;19.9;;
51515;SDS011;37603;55.614;37.326;2023-07-29T22:50:36;32.0;;;20.9;;
51515;SDS011;37603;55.614;37.326;2023-07-29T22:56:35;27.2;;;20.3;;
51515;SDS011;37603;55.614;37.326;2023-07-29T23:02:35;30.7;;;21.5;;
51515;SDS011;37603;55.614;37.326;2023-07-29T23:08:34;22.8;;;17.4;;
51515;SDS011;37603;55.614;37.326;2023-07-29T23:14:33;23.3;;;18.5;;
51515;SDS011;37603;55.614;37.326;2023-07-29T23:20:33;24.4;;;17.8;;
51515;SDS011;37603;55.614;37.326;2023-07-29T23:26:32;28.4;;;20.5;;
51515;SDS011;37603;55.614;37.326;2023-07-29T23:32:31;23.8;;;19.3;;
51515;SDS011;37603;55.614;37.326;2023-07-29T23:38:31;25.8;;;20.7;;
51515;SDS011;37603;55.614;37.326;2023-07-29T23:44:30;23.2;;;16.9;;
51515;SDS011;37603;55.614;37.326;2023-07-29T23:50:29;32.9;;;21.4;;
51515;SDS011;37603;55.614;37.326;2023-07-29T23:56:29;30.3;;;24.0;;
